createdAt,value
2023-01-17T00:00:35.146Z,3.78
2023-01-17T00:03:01.931Z,6.97
2023-01-17T00:05:28.725Z,4.53
2023-01-17T00:07:55.413Z,7.03
2023-01-17T00:10:23.836Z,3.88
2023-01-17T00:12:52.135Z,4.53
2023-01-17T00:15:21.134Z,3.60
2023-01-17T00:17:48.185Z,2.83
2023-01-17T00:20:15.960Z,4.25
2023-01-17T00:22:43.772Z,5.22
2023-01-17T00:25:11.854Z,4.63
2023-01-17T00:27:38.609Z,2.55
2023-01-17T00:30:06.648Z,5.00
2023-01-17T00:32:34.666Z,4.75
2023-01-17T00:35:01.389Z,3.58
2023-01-17T00:37:28.113Z,4.25
2023-01-17T00:39:54.769Z,3.67
2023-01-17T00:42:21.475Z,5.10
2023-01-17T00:44:48.149Z,4.03
2023-01-17T00:47:14.814Z,5.47
2023-01-17T00:49:42.857Z,4.85
2023-01-17T00:52:09.574Z,3.15
2023-01-17T00:54:36.432Z,3.42
2023-01-17T00:57:04.179Z,4.15
2023-01-17T00:59:30.837Z,3.92
2023-01-17T01:01:57.741Z,3.97
2023-01-17T01:04:24.570Z,3.83
2023-01-17T01:06:52.599Z,3.83
2023-01-17T01:09:19.313Z,3.80
2023-01-17T01:11:46.054Z,3.83
2023-01-17T01:14:12.915Z,3.95
2023-01-17T01:16:39.607Z,3.97
2023-01-17T01:19:06.378Z,3.65
2023-01-17T01:21:33.468Z,5.65
2023-01-17T01:24:01.519Z,4.17
2023-01-17T01:26:28.184Z,4.60
2023-01-17T01:28:54.872Z,3.38
2023-01-17T01:31:21.668Z,4.38
2023-01-17T01:33:48.399Z,4.18
2023-01-17T01:36:15.066Z,2.88
2023-01-17T01:38:42.581Z,3.72
2023-01-17T01:41:10.637Z,5.00
2023-01-17T01:43:44.147Z,2.60
2023-01-17T01:46:13.265Z,3.90
2023-01-17T01:48:42.247Z,3.83
2023-01-17T01:51:13.838Z,4.60
2023-01-17T01:53:44.114Z,4.95
2023-01-17T01:56:14.649Z,4.10
2023-01-17T01:58:46.646Z,6.93
2023-01-17T02:01:14.336Z,4.90
2023-01-17T02:03:42.093Z,5.22
2023-01-17T02:06:18.989Z,4.60
2023-01-17T02:08:45.856Z,6.18
2023-01-17T02:11:14.173Z,3.97
2023-01-17T02:13:41.548Z,3.75
2023-01-17T02:16:17.383Z,3.35
2023-01-17T02:18:52.681Z,3.90
2023-01-17T02:21:23.535Z,2.75
2023-01-17T02:24:17.790Z,5.13
2023-01-17T02:26:54.744Z,5.57
2023-01-17T02:29:51.914Z,3.22
2023-01-17T02:32:29.897Z,3.78
2023-01-17T02:35:01.980Z,2.53
2023-01-17T02:37:36.627Z,8.77
2023-01-17T02:40:09.443Z,3.47
2023-01-17T02:42:40.158Z,4.85
2023-01-17T02:45:07.645Z,5.72
2023-01-17T02:47:35.823Z,4.88
2023-01-17T02:50:08.244Z,5.28
2023-01-17T02:52:49.973Z,3.72
2023-01-17T02:55:27.304Z,5.38
2023-01-17T02:58:08.947Z,4.30
2023-01-17T03:00:49.011Z,7.20
2023-01-17T03:03:22.949Z,3.95
2023-01-17T03:05:54.154Z,2.70
2023-01-17T03:08:22.132Z,4.90
2023-01-17T03:10:48.979Z,4.20
2023-01-17T03:13:15.753Z,6.03
2023-01-17T03:15:43.044Z,4.55
2023-01-17T03:18:12.565Z,3.90
2023-01-17T03:20:41.104Z,2.55
2023-01-17T03:23:07.822Z,2.78
2023-01-17T03:25:34.523Z,3.50
2023-01-17T03:28:01.212Z,3.40
2023-01-17T03:30:28.025Z,2.80
2023-01-17T03:32:54.730Z,4.95
2023-01-17T03:35:21.423Z,4.40
2023-01-17T03:37:49.617Z,3.90
2023-01-17T03:40:16.812Z,3.05
2023-01-17T03:42:43.517Z,4.83
2023-01-17T03:45:11.212Z,2.67
2023-01-17T03:47:37.892Z,4.20
2023-01-17T03:50:05.494Z,4.25
2023-01-17T03:52:32.218Z,3.53
2023-01-17T03:55:01.031Z,6.00
2023-01-17T03:57:27.672Z,4.68
2023-01-17T03:59:54.353Z,5.25
2023-01-17T04:02:21.050Z,5.15
2023-01-17T04:04:47.720Z,3.70
2023-01-17T04:07:14.398Z,4.50
2023-01-17T04:09:41.042Z,3.75
2023-01-17T04:12:09.105Z,2.75
2023-01-17T04:14:35.795Z,3.67
2023-01-17T04:17:02.548Z,3.65
2023-01-17T04:19:30.034Z,5.07
2023-01-17T04:21:56.681Z,2.58
2023-01-17T04:24:23.464Z,5.03
2023-01-17T04:26:50.110Z,5.07
2023-01-17T04:29:18.405Z,6.38
2023-01-17T04:31:45.182Z,3.77
2023-01-17T04:34:11.910Z,4.35
2023-01-17T04:36:38.596Z,4.18
2023-01-17T04:39:05.424Z,3.85
2023-01-17T04:41:32.211Z,6.35
2023-01-17T04:43:59.063Z,4.67
2023-01-17T04:46:27.190Z,4.90
2023-01-17T04:48:53.955Z,5.00
2023-01-17T04:51:20.621Z,4.53
2023-01-17T04:53:47.287Z,4.85
2023-01-17T04:56:14.026Z,4.47
2023-01-17T04:58:40.706Z,6.90
2023-01-17T05:01:08.579Z,5.68
2023-01-17T05:03:36.812Z,5.40
2023-01-17T05:06:03.794Z,5.40
2023-01-17T05:08:30.445Z,4.60
2023-01-17T05:10:57.167Z,6.65
2023-01-17T05:13:23.857Z,4.90
2023-01-17T05:15:50.602Z,8.57
2023-01-17T05:18:18.225Z,8.73
2023-01-17T05:20:46.288Z,8.33
2023-01-17T05:23:13.001Z,8.48
2023-01-17T05:25:39.740Z,8.75
2023-01-17T05:28:06.425Z,12.98
2023-01-17T05:30:33.192Z,6.85
2023-01-17T05:32:59.957Z,7.97
2023-01-17T05:35:28.876Z,5.78
2023-01-17T05:37:56.972Z,4.88
2023-01-17T05:40:26.250Z,5.18
2023-01-17T05:42:54.780Z,6.32
2023-01-17T05:45:23.710Z,5.97
2023-01-17T05:47:52.666Z,5.97
2023-01-17T05:50:21.248Z,8.57
2023-01-17T05:52:51.655Z,8.30
2023-01-17T05:55:20.358Z,7.65
2023-01-17T05:57:47.464Z,15.20
2023-01-17T06:00:15.220Z,12.82
2023-01-17T06:02:42.172Z,9.52
2023-01-17T06:05:09.441Z,6.82
2023-01-17T06:07:36.157Z,8.27
2023-01-17T06:10:03.104Z,8.15
2023-01-17T06:12:31.169Z,9.40
2023-01-17T06:14:58.077Z,7.72
2023-01-17T06:17:24.863Z,8.95
2023-01-17T06:19:51.593Z,8.68
2023-01-17T06:22:18.271Z,8.40
2023-01-17T06:24:44.938Z,9.07
2023-01-17T06:27:11.596Z,7.22
2023-01-17T06:29:39.629Z,6.28
2023-01-17T06:32:06.280Z,8.07
2023-01-17T06:34:32.953Z,7.20
2023-01-17T06:36:59.711Z,7.50
2023-01-17T06:39:26.434Z,6.55
2023-01-17T06:41:53.160Z,5.53
2023-01-17T06:44:19.818Z,9.95
2023-01-17T06:46:48.404Z,6.33
2023-01-17T06:49:15.390Z,6.13
2023-01-17T06:51:43.651Z,6.72
2023-01-17T06:54:10.880Z,6.50
2023-01-17T06:56:37.684Z,6.28
2023-01-17T06:59:04.935Z,6.70
2023-01-17T07:01:31.750Z,7.97
2023-01-17T07:04:00.122Z,7.07
2023-01-17T07:06:26.809Z,8.38
2023-01-17T07:08:53.487Z,7.90
2023-01-17T07:11:20.146Z,7.47
2023-01-17T07:13:46.792Z,8.35
2023-01-17T07:16:13.617Z,9.07
2023-01-17T07:18:40.453Z,9.60
2023-01-17T07:21:13.257Z,8.20
2023-01-17T07:23:40.230Z,9.37
2023-01-17T07:26:07.366Z,10.68
2023-01-17T07:28:34.132Z,11.10
2023-01-17T07:31:05.288Z,7.35
2023-01-17T07:33:31.926Z,7.78
2023-01-17T07:35:58.653Z,7.20
2023-01-17T07:38:26.794Z,9.23
2023-01-17T07:40:57.972Z,8.63
2023-01-17T07:43:24.626Z,9.25
2023-01-17T07:45:51.505Z,8.35
2023-01-17T07:48:19.832Z,5.97
2023-01-17T07:50:51.664Z,6.82
2023-01-17T07:53:18.316Z,11.35
2023-01-17T07:55:46.375Z,7.75
2023-01-17T07:58:13.058Z,7.60
2023-01-17T08:00:39.878Z,8.73
2023-01-17T08:03:06.583Z,8.50
2023-01-17T08:05:33.223Z,8.98
2023-01-17T08:07:59.905Z,7.68
2023-01-17T08:10:26.563Z,10.32
2023-01-17T08:12:54.587Z,8.93
2023-01-17T08:15:21.248Z,8.98
2023-01-17T08:17:49.129Z,11.80
2023-01-17T08:20:16.476Z,7.88
2023-01-17T08:22:43.183Z,8.68
2023-01-17T08:25:10.444Z,8.47
2023-01-17T08:27:37.168Z,13.68
2023-01-17T08:30:06.783Z,16.83
2023-01-17T08:32:33.554Z,15.00
2023-01-17T08:35:00.254Z,21.70
2023-01-17T08:37:26.987Z,14.63
2023-01-17T08:39:53.670Z,6.18
2023-01-17T08:42:20.405Z,7.68
2023-01-17T08:44:47.093Z,5.95
2023-01-17T08:47:15.163Z,7.28
2023-01-17T08:49:41.950Z,6.73
2023-01-17T08:52:08.618Z,6.93
2023-01-17T08:54:35.292Z,7.72
2023-01-17T08:57:01.994Z,8.77
2023-01-17T08:59:28.739Z,6.40
2023-01-17T09:01:55.479Z,7.43
2023-01-17T09:04:23.812Z,6.18
2023-01-17T09:06:50.526Z,6.30
2023-01-17T09:09:17.558Z,7.22
2023-01-17T09:11:44.260Z,6.70
2023-01-17T09:14:12.127Z,4.88
2023-01-17T09:16:38.891Z,5.18
2023-01-17T09:19:05.596Z,6.35
2023-01-17T09:21:33.636Z,6.03
2023-01-17T09:24:00.321Z,6.28
2023-01-17T09:26:28.724Z,6.43
2023-01-17T09:28:55.891Z,8.33
2023-01-17T09:31:23.582Z,16.50
2023-01-17T09:33:51.803Z,14.70
2023-01-17T09:36:18.595Z,7.30
2023-01-17T09:38:46.657Z,8.35
2023-01-17T09:41:25.309Z,5.40
2023-01-17T09:43:56.863Z,7.70
2023-01-17T09:46:26.771Z,5.25
2023-01-17T09:49:00.192Z,5.60
2023-01-17T09:51:26.925Z,6.28
2023-01-17T09:53:55.363Z,6.00
2023-01-17T09:56:25.896Z,8.15
2023-01-17T09:59:07.903Z,5.53
2023-01-17T10:01:43.291Z,4.85
2023-01-17T10:04:25.754Z,4.25
2023-01-17T10:07:03.041Z,5.53
2023-01-17T10:09:56.779Z,6.60
2023-01-17T10:12:31.114Z,6.93
2023-01-17T10:15:13.521Z,4.85
2023-01-17T10:17:52.904Z,5.43
2023-01-17T10:20:34.960Z,6.53
2023-01-17T10:23:18.700Z,4.93
2023-01-17T10:25:48.295Z,5.40
2023-01-17T10:28:16.629Z,5.03
2023-01-17T10:30:48.042Z,5.72
2023-01-17T10:33:18.490Z,4.63
2023-01-17T10:35:53.611Z,5.45
2023-01-17T10:38:24.644Z,6.20
2023-01-17T10:40:57.106Z,7.68
2023-01-17T10:43:31.377Z,6.25
2023-01-17T10:45:58.107Z,6.70
2023-01-17T10:48:36.423Z,4.82
2023-01-17T10:51:20.146Z,5.32
2023-01-17T10:53:57.377Z,3.53
2023-01-17T10:56:28.400Z,6.50
2023-01-17T10:59:11.856Z,4.13
2023-01-17T11:01:39.235Z,6.57
2023-01-17T11:04:15.305Z,7.40
2023-01-17T11:06:57.352Z,6.18
2023-01-17T11:09:37.811Z,5.68
2023-01-17T11:12:12.625Z,4.60
2023-01-17T11:14:39.313Z,5.68
2023-01-17T11:17:07.041Z,5.10
2023-01-17T11:19:35.225Z,5.78
2023-01-17T11:22:06.008Z,6.15
2023-01-17T11:24:35.632Z,8.23
2023-01-17T11:27:04.277Z,6.90
2023-01-17T11:29:36.116Z,7.22
2023-01-17T11:32:28.637Z,6.32
2023-01-17T11:35:13.671Z,5.05
2023-01-17T11:37:48.508Z,4.30
2023-01-17T11:40:22.395Z,4.90
2023-01-17T11:43:00.133Z,6.82
2023-01-17T11:45:30.093Z,7.10
2023-01-17T11:48:15.364Z,7.18
2023-01-17T11:50:46.245Z,6.43
2023-01-17T11:53:21.571Z,7.63
2023-01-17T11:55:56.901Z,6.22
2023-01-17T11:58:24.851Z,8.90
2023-01-17T12:01:00.521Z,9.13
2023-01-17T12:03:50.031Z,7.43
2023-01-17T12:06:22.653Z,7.95
2023-01-17T12:09:03.095Z,4.63
2023-01-17T12:11:38.589Z,6.13
2023-01-17T12:14:16.628Z,8.88
2023-01-17T12:16:59.055Z,6.32
2023-01-17T12:19:33.920Z,5.82
2023-01-17T12:22:17.531Z,3.25
2023-01-17T12:25:06.577Z,5.05
2023-01-17T12:27:43.650Z,5.30
2023-01-17T12:30:30.335Z,5.03
2023-01-17T12:33:17.471Z,6.53
2023-01-17T12:35:48.635Z,4.57
2023-01-17T12:38:32.211Z,3.88
2023-01-17T12:41:05.836Z,4.07
2023-01-17T12:43:34.624Z,5.18
2023-01-17T12:46:04.372Z,4.57
2023-01-17T12:48:36.364Z,5.75
2023-01-17T12:51:08.270Z,4.47
2023-01-17T12:53:40.406Z,5.00
2023-01-17T12:56:11.652Z,3.53
2023-01-17T12:58:40.950Z,4.80
2023-01-17T13:01:17.187Z,5.80
2023-01-17T13:03:58.749Z,3.13
2023-01-17T13:06:31.847Z,4.05
2023-01-17T13:09:02.494Z,6.45
2023-01-17T13:11:35.070Z,4.05
2023-01-17T13:14:02.353Z,5.55
2023-01-17T13:16:33.948Z,2.97
2023-01-17T13:19:07.992Z,3.30
2023-01-17T13:21:34.966Z,2.78
2023-01-17T13:24:15.812Z,4.20
2023-01-17T13:26:57.202Z,3.58
2023-01-17T13:29:36.253Z,3.95
2023-01-17T13:32:16.248Z,6.18
2023-01-17T13:35:12.641Z,3.63
2023-01-17T13:38:03.508Z,4.82
2023-01-17T13:40:38.550Z,3.70
2023-01-17T13:43:11.927Z,4.45
2023-01-17T13:45:39.288Z,4.53
2023-01-17T13:48:30.901Z,4.15
2023-01-17T13:51:00.548Z,4.35
2023-01-17T13:53:57.558Z,4.97
2023-01-17T13:56:27.918Z,9.93
2023-01-17T13:58:56.947Z,7.15
2023-01-17T14:02:02.075Z,4.47
2023-01-17T14:05:07.675Z,4.05
2023-01-17T14:07:43.606Z,5.35
2023-01-17T14:10:30.100Z,4.88
2023-01-17T14:12:57.049Z,5.80
2023-01-17T14:15:26.156Z,6.32
2023-01-17T14:17:58.396Z,5.20
2023-01-17T14:20:40.862Z,6.85
2023-01-17T14:23:44.658Z,4.10
2023-01-17T14:26:37.296Z,5.00
2023-01-17T14:29:40.486Z,6.18
2023-01-17T14:32:11.266Z,4.22
2023-01-17T14:34:38.161Z,5.13
2023-01-17T14:37:13.323Z,4.28
2023-01-17T14:39:45.804Z,5.18
2023-01-17T14:42:14.331Z,7.15
2023-01-17T14:44:44.690Z,7.72
2023-01-17T14:47:13.809Z,5.57
2023-01-17T14:49:40.478Z,5.90
2023-01-17T14:52:14.946Z,4.97
2023-01-17T14:54:49.083Z,6.10
2023-01-17T14:57:24.836Z,7.72
2023-01-17T14:59:51.498Z,5.80
2023-01-17T15:02:18.576Z,4.70
2023-01-17T15:04:54.484Z,5.17
2023-01-17T15:07:21.394Z,5.07
2023-01-17T15:09:49.565Z,4.28
2023-01-17T15:12:16.289Z,4.95
2023-01-17T15:14:45.454Z,4.32
2023-01-17T15:17:18.696Z,7.27
2023-01-17T15:19:47.950Z,4.90
2023-01-17T15:22:16.028Z,6.43
2023-01-17T15:24:44.175Z,4.60
2023-01-17T15:27:13.783Z,6.65
2023-01-17T15:29:41.568Z,6.33
2023-01-17T15:32:18.020Z,5.50
2023-01-17T15:34:46.683Z,4.10
2023-01-17T15:37:24.369Z,5.30
2023-01-17T15:39:51.192Z,3.42
2023-01-17T15:42:25.191Z,4.37
2023-01-17T15:44:55.466Z,4.78
2023-01-17T15:47:29.079Z,3.63
2023-01-17T15:49:56.314Z,4.13
2023-01-17T15:52:23.200Z,6.50
2023-01-17T15:54:51.375Z,11.10
2023-01-17T15:57:24.029Z,5.05
2023-01-17T15:59:56.882Z,4.85
2023-01-17T16:02:30.334Z,9.57
2023-01-17T16:04:57.623Z,7.95
2023-01-17T16:07:30.961Z,6.13
2023-01-17T16:10:05.522Z,5.28
2023-01-17T16:12:33.772Z,8.68
2023-01-17T16:15:11.715Z,6.55
2023-01-17T16:17:40.210Z,5.85
2023-01-17T16:20:14.584Z,7.07
2023-01-17T16:22:41.470Z,4.95
2023-01-17T16:25:13.641Z,5.15
2023-01-17T16:27:42.271Z,5.25
2023-01-17T16:30:11.069Z,4.90
2023-01-17T16:32:37.809Z,4.83
2023-01-17T16:35:06.846Z,6.75
2023-01-17T16:37:33.539Z,6.45
2023-01-17T16:40:00.577Z,4.55
2023-01-17T16:42:28.632Z,5.68
2023-01-17T16:44:56.732Z,5.33
2023-01-17T16:47:23.388Z,4.65
2023-01-17T16:49:50.073Z,4.50
2023-01-17T16:52:16.845Z,7.00
2023-01-17T16:54:43.510Z,6.35
2023-01-17T16:57:10.168Z,6.73
2023-01-17T16:59:50.132Z,9.13
2023-01-17T17:02:19.075Z,9.40
2023-01-17T17:04:45.792Z,11.55
2023-01-17T17:07:12.676Z,12.82
2023-01-17T17:09:39.376Z,13.67
2023-01-17T17:12:06.757Z,13.25
2023-01-17T17:14:33.489Z,11.63
2023-01-17T17:17:03.123Z,12.77
2023-01-17T17:19:31.144Z,17.75
2023-01-17T17:21:58.093Z,29.33
2023-01-17T17:24:25.099Z,19.88
2023-01-17T17:26:51.906Z,22.63
2023-01-17T17:29:18.806Z,21.08
2023-01-17T17:31:45.525Z,19.95
2023-01-17T17:34:14.179Z,20.37
2023-01-17T17:36:42.879Z,17.90
2023-01-17T17:39:13.401Z,16.98
2023-01-17T17:41:42.219Z,15.05
2023-01-17T17:44:09.085Z,15.05
2023-01-17T17:46:35.844Z,17.83
2023-01-17T17:49:03.557Z,17.60
2023-01-17T17:51:32.328Z,17.25
2023-01-17T17:54:02.074Z,16.27
2023-01-17T17:56:30.500Z,13.40
2023-01-17T17:58:57.932Z,18.70
2023-01-17T18:01:24.877Z,13.40
2023-01-17T18:03:52.589Z,15.40
2023-01-17T18:06:19.745Z,18.45
2023-01-17T18:08:46.603Z,19.38
2023-01-17T18:11:16.534Z,22.90
2023-01-17T18:13:43.213Z,22.70
2023-01-17T18:16:11.807Z,22.10
2023-01-17T18:18:40.748Z,24.75
2023-01-17T18:21:10.074Z,19.50
2023-01-17T18:23:37.655Z,18.87
2023-01-17T18:26:04.733Z,17.40
2023-01-17T18:28:32.984Z,18.58
2023-01-17T18:31:05.139Z,18.88
2023-01-17T18:33:31.886Z,16.55
2023-01-17T18:36:00.171Z,17.87
2023-01-17T18:38:26.991Z,17.35
2023-01-17T18:40:53.657Z,15.32
2023-01-17T18:43:20.348Z,13.13
2023-01-17T18:45:53.706Z,15.35
2023-01-17T18:48:20.401Z,12.47
2023-01-17T18:50:55.282Z,13.25
2023-01-17T18:53:21.996Z,14.93
2023-01-17T18:55:52.606Z,13.02
2023-01-17T18:58:19.747Z,15.95
2023-01-17T19:00:46.554Z,19.33
2023-01-17T19:03:14.647Z,19.20
2023-01-17T19:05:41.326Z,17.08
2023-01-17T19:08:08.062Z,13.63
2023-01-17T19:10:34.757Z,14.00
2023-01-17T19:13:01.428Z,12.63
2023-01-17T19:15:30.285Z,15.05
2023-01-17T19:17:57.556Z,15.68
2023-01-17T19:20:25.775Z,15.20
2023-01-17T19:22:52.506Z,11.63
2023-01-17T19:25:19.291Z,19.47
2023-01-17T19:27:45.968Z,16.17
2023-01-17T19:30:13.072Z,16.13
2023-01-17T19:32:39.865Z,19.58
2023-01-17T19:35:07.106Z,21.33
2023-01-17T19:37:35.130Z,17.17
2023-01-17T19:40:01.841Z,22.23
2023-01-17T19:42:28.566Z,21.27
2023-01-17T19:44:55.251Z,18.27
2023-01-17T19:47:21.939Z,22.80
2023-01-17T19:49:48.717Z,17.17
2023-01-17T19:52:15.392Z,16.13
2023-01-17T19:54:43.459Z,19.65
2023-01-17T19:57:10.174Z,16.52
2023-01-17T19:59:36.917Z,19.58
2023-01-17T20:02:03.920Z,16.13
2023-01-17T20:04:30.840Z,16.05
2023-01-17T20:06:57.514Z,13.13
2023-01-17T20:09:24.190Z,14.50
2023-01-17T20:11:52.245Z,15.35
2023-01-17T20:14:18.927Z,14.90
2023-01-17T20:16:45.690Z,13.30
2023-01-17T20:19:12.365Z,15.45
2023-01-17T20:21:39.070Z,14.15
2023-01-17T20:24:06.381Z,13.95
2023-01-17T20:26:35.169Z,12.60
2023-01-17T20:29:04.600Z,13.75
2023-01-17T20:31:31.776Z,15.52
2023-01-17T20:33:58.473Z,11.13
2023-01-17T20:36:26.522Z,13.10
2023-01-17T20:38:53.209Z,13.07
2023-01-17T20:41:21.815Z,13.48
2023-01-17T20:43:50.469Z,10.30
2023-01-17T20:46:19.691Z,13.73
2023-01-17T20:48:47.680Z,12.45
2023-01-17T20:51:15.751Z,13.27
2023-01-17T20:53:43.653Z,10.07
2023-01-17T20:56:11.522Z,11.32
2023-01-17T20:58:38.366Z,10.40
2023-01-17T21:01:08.459Z,10.80
2023-01-17T21:03:37.683Z,10.90
2023-01-17T21:06:06.362Z,12.35
2023-01-17T21:08:35.014Z,11.70
2023-01-17T21:11:02.075Z,12.35
2023-01-17T21:13:28.836Z,12.07
2023-01-17T21:15:55.761Z,17.00
2023-01-17T21:18:24.558Z,12.63
2023-01-17T21:20:52.912Z,12.50
2023-01-17T21:23:19.938Z,15.23
2023-01-17T21:25:55.991Z,13.20
2023-01-17T21:28:23.642Z,12.83
2023-01-17T21:30:50.745Z,12.43
2023-01-17T21:33:18.142Z,10.50
2023-01-17T21:35:45.311Z,13.13
2023-01-17T21:38:13.791Z,12.85
2023-01-17T21:40:41.329Z,10.43
2023-01-17T21:43:08.118Z,10.73
2023-01-17T21:45:36.355Z,11.18
2023-01-17T21:48:03.107Z,10.70
2023-01-17T21:50:33.666Z,9.48
2023-01-17T21:53:00.722Z,11.53
2023-01-17T21:55:28.781Z,12.45
2023-01-17T21:57:55.789Z,9.98
2023-01-17T22:00:22.875Z,10.65
2023-01-17T22:02:49.619Z,8.80
2023-01-17T22:05:16.967Z,11.20
2023-01-17T22:07:44.033Z,9.77
2023-01-17T22:10:11.549Z,13.30
2023-01-17T22:12:39.607Z,9.75
2023-01-17T22:15:07.788Z,11.13
2023-01-17T22:17:34.483Z,11.43
2023-01-17T22:20:01.190Z,11.80
2023-01-17T22:22:31.890Z,12.65
2023-01-17T22:24:58.559Z,13.13
2023-01-17T22:27:25.302Z,14.00
2023-01-17T22:29:53.325Z,11.57
2023-01-17T22:32:20.013Z,9.15
2023-01-17T22:34:46.743Z,9.52
2023-01-17T22:37:13.499Z,11.07
2023-01-17T22:39:40.215Z,9.80
2023-01-17T22:42:07.183Z,11.93
2023-01-17T22:44:33.846Z,8.77
2023-01-17T22:47:01.872Z,8.88
2023-01-17T22:49:28.553Z,8.68
2023-01-17T22:51:55.250Z,11.27
2023-01-17T22:54:22.165Z,7.83
2023-01-17T22:56:48.843Z,11.73
2023-01-17T22:59:16.418Z,13.15
2023-01-17T23:01:43.178Z,8.95
2023-01-17T23:04:13.535Z,11.05
2023-01-17T23:06:41.644Z,8.50
2023-01-17T23:09:09.997Z,8.77
2023-01-17T23:11:38.249Z,10.35
2023-01-17T23:14:05.107Z,9.20
2023-01-17T23:16:31.773Z,8.30
2023-01-17T23:18:58.539Z,11.03
2023-01-17T23:21:26.542Z,10.07
2023-01-17T23:23:53.199Z,11.55
2023-01-17T23:26:19.878Z,11.23
2023-01-17T23:28:46.576Z,9.90
2023-01-17T23:31:13.319Z,9.40
2023-01-17T23:33:39.994Z,9.63
2023-01-17T23:36:06.694Z,8.98
2023-01-17T23:38:34.729Z,10.93
2023-01-17T23:41:03.208Z,9.20
2023-01-17T23:43:30.046Z,11.50
2023-01-17T23:45:56.745Z,9.57
2023-01-17T23:48:24.212Z,9.63
2023-01-17T23:50:51.103Z,9.63
2023-01-17T23:53:19.495Z,8.32
2023-01-17T23:55:48.493Z,10.37
2023-01-17T23:58:15.317Z,10.35
